Terminal Aerodrome Forecast
Issued by NWS

Current Version | Previous Version | Text Only | Print | Product List | Glossary On
Versions: 1 2 3 4 5 6 7 8 9 10 11 12 13 14 15 16 17 18 19 20 21 22 23 24 25
000
FTUS45 KABQ 310500
TAFLVS
TAF
KLVS 310534Z 3106/0106 09010KT P6SM VCFG BKN007 OVC025
      TEMPO 3107/3110 4SM BR SCT007 OVC040
     FM311000 18005KT P6SM BKN015 OVC025
     FM311700 18010KT P6SM SCT025 BKN050
     FM312000 18010KT P6SM VCTS BKN050CB
     FM312200 18010KT P6SM VCSH SCT025 OVC040=

USA.gov is the U.S. government's official web portal to all federal, state and local government web resources and services.